sensor_id;sensor_type;location;lat;lon;timestamp;P1;durP1;ratioP1;P2;durP2;ratioP2
1507;SDS011;745;48.586;10.032;2023-05-10T00:00:06;13.53;;;11.90;;
1507;SDS011;745;48.586;10.032;2023-05-10T00:04:38;11.63;;;10.23;;
1507;SDS011;745;48.586;10.032;2023-05-10T00:09:08;12.73;;;11.40;;
1507;SDS011;745;48.586;10.032;2023-05-10T00:13:50;12.53;;;10.77;;
1507;SDS011;745;48.586;10.032;2023-05-10T00:18:28;11.70;;;10.50;;
1507;SDS011;745;48.586;10.032;2023-05-10T00:23:02;9.40;;;8.37;;
1507;SDS011;745;48.586;10.032;2023-05-10T00:27:47;12.17;;;10.90;;
1507;SDS011;745;48.586;10.032;2023-05-10T00:32:17;8.10;;;7.30;;
1507;SDS011;745;48.586;10.032;2023-05-10T00:36:47;9.37;;;8.40;;
1507;SDS011;745;48.586;10.032;2023-05-10T00:41:19;6.87;;;6.20;;
1507;SDS011;745;48.586;10.032;2023-05-10T00:45:51;5.93;;;5.43;;
1507;SDS011;745;48.586;10.032;2023-05-10T00:50:22;7.63;;;6.43;;
1507;SDS011;745;48.586;10.032;2023-05-10T00:54:54;6.20;;;5.33;;
1507;SDS011;745;48.586;10.032;2023-05-10T00:59:25;4.40;;;3.70;;
1507;SDS011;745;48.586;10.032;2023-05-10T01:03:55;5.43;;;4.30;;
1507;SDS011;745;48.586;10.032;2023-05-10T01:08:26;3.70;;;3.10;;
1507;SDS011;745;48.586;10.032;2023-05-10T01:13:13;3.50;;;3.20;;
1507;SDS011;745;48.586;10.032;2023-05-10T01:18:06;3.37;;;2.90;;
1507;SDS011;745;48.586;10.032;2023-05-10T01:32:48;3.40;;;2.30;;
1507;SDS011;745;48.586;10.032;2023-05-10T01:37:39;3.80;;;2.80;;
1507;SDS011;745;48.586;10.032;2023-05-10T01:42:20;1.80;;;1.70;;
1507;SDS011;745;48.586;10.032;2023-05-10T01:46:57;1.97;;;1.87;;
1507;SDS011;745;48.586;10.032;2023-05-10T01:51:40;3.73;;;1.70;;
1507;SDS011;745;48.586;10.032;2023-05-10T01:56:16;1.60;;;1.50;;
1507;SDS011;745;48.586;10.032;2023-05-10T02:00:47;1.30;;;1.20;;
1507;SDS011;745;48.586;10.032;2023-05-10T02:05:19;1.87;;;1.10;;
1507;SDS011;745;48.586;10.032;2023-05-10T02:09:50;2.87;;;1.10;;
1507;SDS011;745;48.586;10.032;2023-05-10T02:14:22;3.37;;;0.90;;
1507;SDS011;745;48.586;10.032;2023-05-10T02:18:54;0.90;;;0.90;;
1507;SDS011;745;48.586;10.032;2023-05-10T02:23:29;0.90;;;0.90;;
1507;SDS011;745;48.586;10.032;2023-05-10T02:28:02;1.30;;;1.20;;
1507;SDS011;745;48.586;10.032;2023-05-10T02:32:40;1.20;;;1.10;;
1507;SDS011;745;48.586;10.032;2023-05-10T02:37:17;5.93;;;1.47;;
1507;SDS011;745;48.586;10.032;2023-05-10T02:41:49;1.53;;;1.43;;
1507;SDS011;745;48.586;10.032;2023-05-10T02:46:20;2.73;;;1.50;;
1507;SDS011;745;48.586;10.032;2023-05-10T02:50:52;1.23;;;1.13;;
1507;SDS011;745;48.586;10.032;2023-05-10T02:55:31;1.60;;;1.50;;
1507;SDS011;745;48.586;10.032;2023-05-10T03:00:03;1.70;;;1.60;;
1507;SDS011;745;48.586;10.032;2023-05-10T03:04:34;1.50;;;1.40;;
1507;SDS011;745;48.586;10.032;2023-05-10T03:09:04;1.50;;;1.40;;
1507;SDS011;745;48.586;10.032;2023-05-10T03:13:44;1.40;;;1.30;;
1507;SDS011;745;48.586;10.032;2023-05-10T03:18:24;4.37;;;1.43;;
1507;SDS011;745;48.586;10.032;2023-05-10T03:28:20;1.50;;;1.40;;
1507;SDS011;745;48.586;10.032;2023-05-10T03:32:53;2.40;;;1.73;;
1507;SDS011;745;48.586;10.032;2023-05-10T03:37:24;2.90;;;1.50;;
1507;SDS011;745;48.586;10.032;2023-05-10T03:41:54;2.00;;;1.90;;
1507;SDS011;745;48.586;10.032;2023-05-10T03:46:24;1.90;;;1.80;;
1507;SDS011;745;48.586;10.032;2023-05-10T03:50:56;4.13;;;1.90;;
1507;SDS011;745;48.586;10.032;2023-05-10T03:55:26;2.73;;;1.90;;
1507;SDS011;745;48.586;10.032;2023-05-10T03:59:56;4.30;;;3.23;;
1507;SDS011;745;48.586;10.032;2023-05-10T04:04:27;2.03;;;1.83;;
1507;SDS011;745;48.586;10.032;2023-05-10T04:08:57;1.87;;;1.77;;
1507;SDS011;745;48.586;10.032;2023-05-10T04:13:31;2.00;;;1.90;;
1507;SDS011;745;48.586;10.032;2023-05-10T04:18:02;2.20;;;2.00;;
1507;SDS011;745;48.586;10.032;2023-05-10T04:22:40;2.10;;;1.90;;
1507;SDS011;745;48.586;10.032;2023-05-10T04:27:11;2.10;;;1.90;;
1507;SDS011;745;48.586;10.032;2023-05-10T04:31:42;1.77;;;1.67;;
1507;SDS011;745;48.586;10.032;2023-05-10T04:36:12;2.60;;;2.40;;
1507;SDS011;745;48.586;10.032;2023-05-10T04:40:43;2.57;;;2.37;;
1507;SDS011;745;48.586;10.032;2023-05-10T04:45:13;2.57;;;2.23;;
1507;SDS011;745;48.586;10.032;2023-05-10T04:49:46;2.37;;;2.10;;
1507;SDS011;745;48.586;10.032;2023-05-10T04:54:22;2.80;;;2.60;;
1507;SDS011;745;48.586;10.032;2023-05-10T04:58:53;4.40;;;2.40;;
1507;SDS011;745;48.586;10.032;2023-05-10T05:03:23;3.20;;;2.83;;
1507;SDS011;745;48.586;10.032;2023-05-10T05:07:54;2.70;;;2.50;;
1507;SDS011;745;48.586;10.032;2023-05-10T05:12:26;4.20;;;2.57;;
1507;SDS011;745;48.586;10.032;2023-05-10T05:16:57;2.77;;;2.20;;
1507;SDS011;745;48.586;10.032;2023-05-10T05:21:27;3.07;;;2.80;;
1507;SDS011;745;48.586;10.032;2023-05-10T05:25:58;2.20;;;1.73;;
1507;SDS011;745;48.586;10.032;2023-05-10T05:30:29;2.00;;;1.90;;
1507;SDS011;745;48.586;10.032;2023-05-10T05:34:59;2.50;;;2.00;;
1507;SDS011;745;48.586;10.032;2023-05-10T05:39:29;2.60;;;2.40;;
1507;SDS011;745;48.586;10.032;2023-05-10T05:44:00;5.37;;;2.30;;
1507;SDS011;745;48.586;10.032;2023-05-10T05:48:30;1.90;;;1.80;;
1507;SDS011;745;48.586;10.032;2023-05-10T05:53:01;1.90;;;1.80;;
1507;SDS011;745;48.586;10.032;2023-05-10T05:57:31;1.80;;;1.70;;
1507;SDS011;745;48.586;10.032;2023-05-10T06:02:01;2.63;;;1.97;;
1507;SDS011;745;48.586;10.032;2023-05-10T06:06:32;1.70;;;1.60;;
1507;SDS011;745;48.586;10.032;2023-05-10T06:11:03;2.10;;;1.67;;
1507;SDS011;745;48.586;10.032;2023-05-10T06:15:34;1.70;;;1.60;;
1507;SDS011;745;48.586;10.032;2023-05-10T06:20:04;4.20;;;1.63;;
1507;SDS011;745;48.586;10.032;2023-05-10T06:24:36;1.70;;;1.60;;
1507;SDS011;745;48.586;10.032;2023-05-10T06:29:07;2.10;;;1.90;;
1507;SDS011;745;48.586;10.032;2023-05-10T06:33:37;2.60;;;1.70;;
1507;SDS011;745;48.586;10.032;2023-05-10T06:38:07;4.00;;;1.77;;
1507;SDS011;745;48.586;10.032;2023-05-10T06:42:38;1.90;;;1.70;;
1507;SDS011;745;48.586;10.032;2023-05-10T06:47:08;2.33;;;1.77;;
1507;SDS011;745;48.586;10.032;2023-05-10T06:51:39;2.10;;;1.80;;
1507;SDS011;745;48.586;10.032;2023-05-10T06:56:10;1.93;;;1.83;;
1507;SDS011;745;48.586;10.032;2023-05-10T07:00:40;2.73;;;1.87;;
1507;SDS011;745;48.586;10.032;2023-05-10T07:05:13;2.13;;;1.93;;
1507;SDS011;745;48.586;10.032;2023-05-10T07:09:44;2.03;;;1.83;;
1507;SDS011;745;48.586;10.032;2023-05-10T07:14:14;2.80;;;2.00;;
1507;SDS011;745;48.586;10.032;2023-05-10T07:18:45;2.23;;;2.03;;
1507;SDS011;745;48.586;10.032;2023-05-10T07:23:15;2.13;;;2.03;;
1507;SDS011;745;48.586;10.032;2023-05-10T07:27:47;2.80;;;2.50;;
1507;SDS011;745;48.586;10.032;2023-05-10T07:32:18;2.07;;;1.97;;
1507;SDS011;745;48.586;10.032;2023-05-10T07:36:48;3.10;;;2.00;;
1507;SDS011;745;48.586;10.032;2023-05-10T07:41:19;1.97;;;1.83;;
1507;SDS011;745;48.586;10.032;2023-05-10T07:45:51;2.30;;;2.10;;
1507;SDS011;745;48.586;10.032;2023-05-10T07:50:21;2.50;;;2.30;;
1507;SDS011;745;48.586;10.032;2023-05-10T07:54:51;4.23;;;2.27;;
1507;SDS011;745;48.586;10.032;2023-05-10T07:59:22;2.67;;;2.33;;
1507;SDS011;745;48.586;10.032;2023-05-10T08:03:52;2.30;;;2.10;;
1507;SDS011;745;48.586;10.032;2023-05-10T08:08:23;2.40;;;2.20;;
1507;SDS011;745;48.586;10.032;2023-05-10T08:12:54;2.90;;;2.33;;
1507;SDS011;745;48.586;10.032;2023-05-10T08:17:24;2.50;;;2.30;;
1507;SDS011;745;48.586;10.032;2023-05-10T08:21:55;2.30;;;2.10;;
1507;SDS011;745;48.586;10.032;2023-05-10T08:26:25;2.70;;;2.00;;
1507;SDS011;745;48.586;10.032;2023-05-10T08:30:56;2.40;;;1.90;;
1507;SDS011;745;48.586;10.032;2023-05-10T08:35:26;2.80;;;2.10;;
1507;SDS011;745;48.586;10.032;2023-05-10T08:39:57;4.30;;;4.00;;
1507;SDS011;745;48.586;10.032;2023-05-10T08:44:27;2.20;;;1.70;;
1507;SDS011;745;48.586;10.032;2023-05-10T08:48:57;2.30;;;2.10;;
1507;SDS011;745;48.586;10.032;2023-05-10T08:53:30;2.07;;;1.97;;
1507;SDS011;745;48.586;10.032;2023-05-10T08:58:02;1.90;;;1.80;;
1507;SDS011;745;48.586;10.032;2023-05-10T09:02:35;1.77;;;1.67;;
1507;SDS011;745;48.586;10.032;2023-05-10T09:07:07;1.60;;;1.40;;
1507;SDS011;745;48.586;10.032;2023-05-10T09:11:37;2.80;;;1.80;;
1507;SDS011;745;48.586;10.032;2023-05-10T09:16:08;1.57;;;1.47;;
1507;SDS011;745;48.586;10.032;2023-05-10T09:20:38;2.43;;;1.60;;
1507;SDS011;745;48.586;10.032;2023-05-10T09:25:12;4.40;;;1.60;;
1507;SDS011;745;48.586;10.032;2023-05-10T09:29:44;2.87;;;1.60;;
1507;SDS011;745;48.586;10.032;2023-05-10T09:34:15;2.30;;;1.47;;
1507;SDS011;745;48.586;10.032;2023-05-10T09:38:51;1.40;;;1.30;;
1507;SDS011;745;48.586;10.032;2023-05-10T09:43:22;2.40;;;1.20;;
1507;SDS011;745;48.586;10.032;2023-05-10T09:47:53;1.50;;;1.40;;
1507;SDS011;745;48.586;10.032;2023-05-10T09:52:23;1.33;;;1.20;;
1507;SDS011;745;48.586;10.032;2023-05-10T09:56:53;1.73;;;1.10;;
1507;SDS011;745;48.586;10.032;2023-05-10T10:01:25;1.40;;;1.30;;
1507;SDS011;745;48.586;10.032;2023-05-10T10:05:56;2.33;;;1.50;;
1507;SDS011;745;48.586;10.032;2023-05-10T10:10:26;1.20;;;1.10;;
1507;SDS011;745;48.586;10.032;2023-05-10T10:14:58;1.40;;;1.30;;
1507;SDS011;745;48.586;10.032;2023-05-10T10:19:29;1.97;;;1.27;;
1507;SDS011;745;48.586;10.032;2023-05-10T10:24:00;1.33;;;1.23;;
1507;SDS011;745;48.586;10.032;2023-05-10T10:38:22;1.80;;;1.40;;
1507;SDS011;745;48.586;10.032;2023-05-10T10:42:53;1.67;;;1.30;;
1507;SDS011;745;48.586;10.032;2023-05-10T10:47:24;1.30;;;1.20;;
1507;SDS011;745;48.586;10.032;2023-05-10T10:52:14;1.60;;;1.30;;
1507;SDS011;745;48.586;10.032;2023-05-10T11:01:42;2.00;;;1.40;;
1507;SDS011;745;48.586;10.032;2023-05-10T11:06:16;2.20;;;1.53;;
1507;SDS011;745;48.586;10.032;2023-05-10T11:15:32;1.17;;;1.07;;
1507;SDS011;745;48.586;10.032;2023-05-10T11:20:07;1.80;;;1.40;;
1507;SDS011;745;48.586;10.032;2023-05-10T11:24:55;1.50;;;1.40;;
1507;SDS011;745;48.586;10.032;2023-05-10T11:29:26;1.30;;;1.20;;
1507;SDS011;745;48.586;10.032;2023-05-10T11:33:57;1.50;;;1.30;;
1507;SDS011;745;48.586;10.032;2023-05-10T11:38:28;3.10;;;1.47;;
1507;SDS011;745;48.586;10.032;2023-05-10T11:43:03;1.50;;;1.40;;
1507;SDS011;745;48.586;10.032;2023-05-10T11:47:34;4.80;;;1.57;;
1507;SDS011;745;48.586;10.032;2023-05-10T11:52:06;1.40;;;1.30;;
1507;SDS011;745;48.586;10.032;2023-05-10T11:56:37;1.60;;;1.50;;
1507;SDS011;745;48.586;10.032;2023-05-10T12:01:09;1.10;;;1.00;;
1507;SDS011;745;48.586;10.032;2023-05-10T12:05:40;1.47;;;1.10;;
1507;SDS011;745;48.586;10.032;2023-05-10T12:10:12;2.40;;;1.43;;
1507;SDS011;745;48.586;10.032;2023-05-10T12:14:50;1.60;;;1.20;;
1507;SDS011;745;48.586;10.032;2023-05-10T12:19:20;1.83;;;1.53;;
1507;SDS011;745;48.586;10.032;2023-05-10T12:23:56;1.80;;;1.60;;
1507;SDS011;745;48.586;10.032;2023-05-10T12:28:30;2.10;;;1.80;;
1507;SDS011;745;48.586;10.032;2023-05-10T12:33:02;1.80;;;1.40;;
1507;SDS011;745;48.586;10.032;2023-05-10T12:37:43;3.57;;;1.37;;
1507;SDS011;745;48.586;10.032;2023-05-10T12:42:13;1.70;;;1.60;;
1507;SDS011;745;48.586;10.032;2023-05-10T12:46:43;2.60;;;1.40;;
1507;SDS011;745;48.586;10.032;2023-05-10T12:51:14;2.50;;;1.73;;
1507;SDS011;745;48.586;10.032;2023-05-10T12:55:47;4.20;;;1.63;;
1507;SDS011;745;48.586;10.032;2023-05-10T13:00:17;2.83;;;1.50;;
1507;SDS011;745;48.586;10.032;2023-05-10T13:04:49;2.10;;;1.30;;
1507;SDS011;745;48.586;10.032;2023-05-10T13:09:19;2.60;;;1.50;;
1507;SDS011;745;48.586;10.032;2023-05-10T13:13:50;1.87;;;1.20;;
1507;SDS011;745;48.586;10.032;2023-05-10T13:18:21;1.60;;;1.50;;
1507;SDS011;745;48.586;10.032;2023-05-10T13:22:51;4.37;;;2.10;;
1507;SDS011;745;48.586;10.032;2023-05-10T13:27:22;1.40;;;1.30;;
1507;SDS011;745;48.586;10.032;2023-05-10T13:31:52;1.97;;;1.20;;
1507;SDS011;745;48.586;10.032;2023-05-10T13:36:22;1.50;;;1.40;;
1507;SDS011;745;48.586;10.032;2023-05-10T13:40:53;4.30;;;1.53;;
1507;SDS011;745;48.586;10.032;2023-05-10T13:45:23;1.60;;;1.50;;
1507;SDS011;745;48.586;10.032;2023-05-10T13:49:54;2.13;;;1.63;;
1507;SDS011;745;48.586;10.032;2023-05-10T13:54:24;2.10;;;1.53;;
1507;SDS011;745;48.586;10.032;2023-05-10T13:58:56;2.50;;;1.90;;
1507;SDS011;745;48.586;10.032;2023-05-10T14:03:27;2.37;;;1.73;;
1507;SDS011;745;48.586;10.032;2023-05-10T14:07:57;2.50;;;1.63;;
1507;SDS011;745;48.586;10.032;2023-05-10T14:12:29;4.97;;;1.97;;
1507;SDS011;745;48.586;10.032;2023-05-10T14:16:59;2.70;;;1.80;;
1507;SDS011;745;48.586;10.032;2023-05-10T14:21:30;1.80;;;1.37;;
1507;SDS011;745;48.586;10.032;2023-05-10T14:26:00;5.40;;;2.00;;
1507;SDS011;745;48.586;10.032;2023-05-10T14:30:31;3.00;;;1.80;;
1507;SDS011;745;48.586;10.032;2023-05-10T14:35:03;2.13;;;1.93;;
1507;SDS011;745;48.586;10.032;2023-05-10T14:39:33;1.90;;;1.80;;
1507;SDS011;745;48.586;10.032;2023-05-10T14:44:04;1.80;;;1.70;;
1507;SDS011;745;48.586;10.032;2023-05-10T14:48:34;1.70;;;1.60;;
1507;SDS011;745;48.586;10.032;2023-05-10T14:53:05;1.70;;;1.60;;
1507;SDS011;745;48.586;10.032;2023-05-10T14:57:35;7.17;;;2.20;;
1507;SDS011;745;48.586;10.032;2023-05-10T15:02:06;2.23;;;2.00;;
1507;SDS011;745;48.586;10.032;2023-05-10T15:06:38;1.83;;;1.73;;
1507;SDS011;745;48.586;10.032;2023-05-10T15:11:08;2.03;;;1.80;;
1507;SDS011;745;48.586;10.032;2023-05-10T15:15:38;2.40;;;1.93;;
1507;SDS011;745;48.586;10.032;2023-05-10T15:20:09;3.37;;;2.60;;
1507;SDS011;745;48.586;10.032;2023-05-10T15:24:39;6.40;;;3.53;;
1507;SDS011;745;48.586;10.032;2023-05-10T15:29:10;3.30;;;2.47;;
1507;SDS011;745;48.586;10.032;2023-05-10T15:33:40;3.50;;;2.93;;
1507;SDS011;745;48.586;10.032;2023-05-10T15:38:10;2.73;;;2.53;;
1507;SDS011;745;48.586;10.032;2023-05-10T15:42:41;2.73;;;2.50;;
1507;SDS011;745;48.586;10.032;2023-05-10T15:47:11;3.10;;;2.03;;
1507;SDS011;745;48.586;10.032;2023-05-10T15:51:42;3.80;;;2.57;;
1507;SDS011;745;48.586;10.032;2023-05-10T15:56:12;1.97;;;1.87;;
1507;SDS011;745;48.586;10.032;2023-05-10T16:00:44;3.00;;;2.70;;
1507;SDS011;745;48.586;10.032;2023-05-10T16:05:14;2.73;;;2.47;;
1507;SDS011;745;48.586;10.032;2023-05-10T16:09:45;2.27;;;2.07;;
1507;SDS011;745;48.586;10.032;2023-05-10T16:14:16;1.97;;;1.87;;
1507;SDS011;745;48.586;10.032;2023-05-10T16:18:46;3.10;;;2.90;;
1507;SDS011;745;48.586;10.032;2023-05-10T16:23:17;2.77;;;2.57;;
1507;SDS011;745;48.586;10.032;2023-05-10T16:27:47;5.40;;;3.30;;
1507;SDS011;745;48.586;10.032;2023-05-10T16:32:17;4.33;;;3.93;;
1507;SDS011;745;48.586;10.032;2023-05-10T16:36:48;3.10;;;2.70;;
1507;SDS011;745;48.586;10.032;2023-05-10T16:41:18;3.20;;;2.40;;
1507;SDS011;745;48.586;10.032;2023-05-10T16:45:48;3.93;;;3.53;;
1507;SDS011;745;48.586;10.032;2023-05-10T16:50:19;4.20;;;3.80;;
1507;SDS011;745;48.586;10.032;2023-05-10T16:54:49;2.90;;;2.70;;
1507;SDS011;745;48.586;10.032;2023-05-10T16:59:20;4.83;;;4.43;;
1507;SDS011;745;48.586;10.032;2023-05-10T17:03:50;4.60;;;3.87;;
1507;SDS011;745;48.586;10.032;2023-05-10T17:08:20;4.17;;;3.80;;
1507;SDS011;745;48.586;10.032;2023-05-10T17:12:51;4.10;;;3.70;;
1507;SDS011;745;48.586;10.032;2023-05-10T17:17:22;4.30;;;3.30;;
1507;SDS011;745;48.586;10.032;2023-05-10T17:21:52;3.53;;;3.23;;
1507;SDS011;745;48.586;10.032;2023-05-10T17:26:23;3.83;;;3.43;;
1507;SDS011;745;48.586;10.032;2023-05-10T17:30:54;4.20;;;3.80;;
1507;SDS011;745;48.586;10.032;2023-05-10T17:35:26;4.77;;;3.27;;
1507;SDS011;745;48.586;10.032;2023-05-10T17:39:56;4.30;;;3.90;;
1507;SDS011;745;48.586;10.032;2023-05-10T17:44:27;6.43;;;4.80;;
1507;SDS011;745;48.586;10.032;2023-05-10T17:48:57;4.83;;;3.87;;
1507;SDS011;745;48.586;10.032;2023-05-10T17:53:27;4.60;;;4.20;;
1507;SDS011;745;48.586;10.032;2023-05-10T17:57:58;6.20;;;3.90;;
1507;SDS011;745;48.586;10.032;2023-05-10T18:02:29;7.20;;;4.37;;
1507;SDS011;745;48.586;10.032;2023-05-10T18:06:59;6.57;;;4.90;;
1507;SDS011;745;48.586;10.032;2023-05-10T18:11:30;4.27;;;3.90;;
1507;SDS011;745;48.586;10.032;2023-05-10T18:16:00;7.23;;;4.60;;
1507;SDS011;745;48.586;10.032;2023-05-10T18:20:30;5.47;;;4.50;;
1507;SDS011;745;48.586;10.032;2023-05-10T18:25:01;5.00;;;4.50;;
1507;SDS011;745;48.586;10.032;2023-05-10T18:29:31;5.63;;;5.10;;
1507;SDS011;745;48.586;10.032;2023-05-10T18:34:01;6.10;;;5.50;;
1507;SDS011;745;48.586;10.032;2023-05-10T18:38:32;7.10;;;6.40;;
1507;SDS011;745;48.586;10.032;2023-05-10T18:43:02;8.20;;;6.33;;
1507;SDS011;745;48.586;10.032;2023-05-10T18:47:33;6.53;;;5.40;;
1507;SDS011;745;48.586;10.032;2023-05-10T18:52:03;5.87;;;5.37;;
1507;SDS011;745;48.586;10.032;2023-05-10T18:56:33;6.23;;;5.63;;
1507;SDS011;745;48.586;10.032;2023-05-10T19:01:04;8.70;;;6.63;;
1507;SDS011;745;48.586;10.032;2023-05-10T19:05:34;5.43;;;4.87;;
1507;SDS011;745;48.586;10.032;2023-05-10T19:10:05;6.70;;;5.40;;
1507;SDS011;745;48.586;10.032;2023-05-10T19:14:35;4.80;;;4.37;;
1507;SDS011;745;48.586;10.032;2023-05-10T19:19:06;9.03;;;5.57;;
1507;SDS011;745;48.586;10.032;2023-05-10T19:23:36;5.63;;;4.73;;
1507;SDS011;745;48.586;10.032;2023-05-10T19:28:10;7.93;;;6.40;;
1507;SDS011;745;48.586;10.032;2023-05-10T19:32:41;6.07;;;5.47;;
1507;SDS011;745;48.586;10.032;2023-05-10T19:37:13;5.63;;;5.13;;
1507;SDS011;745;48.586;10.032;2023-05-10T19:41:43;5.50;;;5.00;;
1507;SDS011;745;48.586;10.032;2023-05-10T19:46:13;5.60;;;5.10;;
1507;SDS011;745;48.586;10.032;2023-05-10T19:50:44;6.27;;;5.70;;
1507;SDS011;745;48.586;10.032;2023-05-10T19:55:18;5.73;;;4.50;;
1507;SDS011;745;48.586;10.032;2023-05-10T19:59:55;4.50;;;4.10;;
1507;SDS011;745;48.586;10.032;2023-05-10T20:04:25;6.37;;;5.00;;
1507;SDS011;745;48.586;10.032;2023-05-10T20:08:57;4.70;;;3.90;;
1507;SDS011;745;48.586;10.032;2023-05-10T20:13:28;4.83;;;4.43;;
1507;SDS011;745;48.586;10.032;2023-05-10T20:17:58;8.57;;;6.73;;
1507;SDS011;745;48.586;10.032;2023-05-10T20:22:29;5.73;;;4.93;;
1507;SDS011;745;48.586;10.032;2023-05-10T20:26:59;6.33;;;4.27;;
1507;SDS011;745;48.586;10.032;2023-05-10T20:31:29;4.90;;;4.30;;
1507;SDS011;745;48.586;10.032;2023-05-10T20:36:00;3.97;;;3.67;;
1507;SDS011;745;48.586;10.032;2023-05-10T20:40:30;4.47;;;4.07;;
1507;SDS011;745;48.586;10.032;2023-05-10T20:45:01;4.57;;;4.17;;
1507;SDS011;745;48.586;10.032;2023-05-10T20:49:31;5.67;;;5.13;;
1507;SDS011;745;48.586;10.032;2023-05-10T20:54:01;8.57;;;6.60;;
1507;SDS011;745;48.586;10.032;2023-05-10T20:58:33;10.00;;;8.80;;
1507;SDS011;745;48.586;10.032;2023-05-10T21:03:04;7.70;;;5.90;;
1507;SDS011;745;48.586;10.032;2023-05-10T21:07:34;6.80;;;4.73;;
1507;SDS011;745;48.586;10.032;2023-05-10T21:12:05;7.63;;;5.80;;
1507;SDS011;745;48.586;10.032;2023-05-10T21:16:35;5.67;;;4.67;;
1507;SDS011;745;48.586;10.032;2023-05-10T21:21:06;6.13;;;5.30;;
1507;SDS011;745;48.586;10.032;2023-05-10T21:25:36;7.30;;;6.13;;
1507;SDS011;745;48.586;10.032;2023-05-10T21:30:07;7.57;;;5.27;;
1507;SDS011;745;48.586;10.032;2023-05-10T21:34:38;7.90;;;4.83;;
1507;SDS011;745;48.586;10.032;2023-05-10T21:39:09;5.33;;;4.30;;
1507;SDS011;745;48.586;10.032;2023-05-10T21:43:40;5.47;;;4.10;;
1507;SDS011;745;48.586;10.032;2023-05-10T21:48:10;3.73;;;3.43;;
1507;SDS011;745;48.586;10.032;2023-05-10T21:52:41;5.83;;;5.23;;
1507;SDS011;745;48.586;10.032;2023-05-10T21:57:11;6.03;;;5.53;;
1507;SDS011;745;48.586;10.032;2023-05-10T22:01:41;4.80;;;4.40;;
1507;SDS011;745;48.586;10.032;2023-05-10T22:06:12;4.17;;;3.77;;
1507;SDS011;745;48.586;10.032;2023-05-10T22:10:43;3.60;;;3.30;;
1507;SDS011;745;48.586;10.032;2023-05-10T22:15:13;5.23;;;3.87;;
1507;SDS011;745;48.586;10.032;2023-05-10T22:19:43;4.13;;;3.77;;
1507;SDS011;745;48.586;10.032;2023-05-10T22:24:13;6.90;;;4.27;;
1507;SDS011;745;48.586;10.032;2023-05-10T22:28:44;4.67;;;4.17;;
1507;SDS011;745;48.586;10.032;2023-05-10T22:33:14;3.97;;;3.57;;
1507;SDS011;745;48.586;10.032;2023-05-10T22:37:45;4.67;;;4.17;;
1507;SDS011;745;48.586;10.032;2023-05-10T22:42:15;4.80;;;4.30;;
1507;SDS011;745;48.586;10.032;2023-05-10T22:46:45;3.90;;;3.60;;
1507;SDS011;745;48.586;10.032;2023-05-10T22:51:16;5.23;;;3.73;;
1507;SDS011;745;48.586;10.032;2023-05-10T22:55:46;7.03;;;4.40;;
1507;SDS011;745;48.586;10.032;2023-05-10T23:00:16;6.00;;;4.80;;
1507;SDS011;745;48.586;10.032;2023-05-10T23:10:13;4.20;;;3.80;;
1507;SDS011;745;48.586;10.032;2023-05-10T23:14:44;7.00;;;4.33;;
1507;SDS011;745;48.586;10.032;2023-05-10T23:19:15;5.23;;;4.40;;
1507;SDS011;745;48.586;10.032;2023-05-10T23:23:45;4.70;;;4.30;;
1507;SDS011;745;48.586;10.032;2023-05-10T23:28:16;4.13;;;3.83;;
1507;SDS011;745;48.586;10.032;2023-05-10T23:32:46;5.17;;;4.67;;
1507;SDS011;745;48.586;10.032;2023-05-10T23:37:17;4.87;;;4.47;;
1507;SDS011;745;48.586;10.032;2023-05-10T23:41:47;3.60;;;3.30;;
1507;SDS011;745;48.586;10.032;2023-05-10T23:46:17;3.37;;;3.07;;
1507;SDS011;745;48.586;10.032;2023-05-10T23:50:48;2.70;;;2.50;;
1507;SDS011;745;48.586;10.032;2023-05-10T23:55:18;3.40;;;3.10;;
1507;SDS011;745;48.586;10.032;2023-05-10T23:59:49;3.20;;;3.00;;
